createdAt,value
2019-05-30T00:00:28.341Z,13.84
2019-05-30T00:01:28.350Z,13.78
2019-05-30T00:02:28.333Z,13.73
2019-05-30T00:03:28.310Z,13.79
2019-05-30T00:04:28.300Z,13.60
2019-05-30T00:05:33.313Z,13.66
2019-05-30T00:06:28.277Z,13.63
2019-05-30T00:07:28.284Z,13.75
2019-05-30T00:08:28.270Z,13.84
2019-05-30T00:09:28.245Z,13.69
2019-05-30T00:10:28.239Z,13.69
2019-05-30T00:11:28.224Z,13.77
2019-05-30T00:12:28.222Z,13.79
2019-05-30T00:13:28.200Z,13.69
2019-05-30T00:14:28.207Z,13.63
2019-05-30T00:15:28.179Z,13.63
2019-05-30T00:16:33.192Z,13.60
2019-05-30T00:17:28.168Z,13.69
2019-05-30T00:18:28.151Z,13.63
2019-05-30T00:19:28.143Z,13.67
2019-05-30T00:20:28.125Z,13.66
2019-05-30T00:21:28.113Z,13.64
2019-05-30T00:22:28.111Z,13.63
2019-05-30T00:23:28.091Z,13.66
2019-05-30T00:24:28.079Z,13.62
2019-05-30T00:25:28.073Z,13.63
2019-05-30T00:26:28.061Z,13.67
2019-05-30T00:27:33.081Z,13.67
2019-05-30T00:28:28.036Z,13.67
2019-05-30T00:29:28.029Z,13.66
2019-05-30T00:30:28.012Z,13.67
2019-05-30T00:31:28.004Z,13.71
2019-05-30T00:32:28.017Z,13.67
2019-05-30T00:33:27.983Z,13.67
2019-05-30T00:34:28.076Z,13.69
2019-05-30T00:35:27.963Z,13.66
2019-05-30T00:36:27.947Z,13.54
2019-05-30T00:37:27.953Z,13.55
2019-05-30T00:38:32.945Z,13.62
2019-05-30T00:39:27.916Z,13.49
2019-05-30T00:40:27.907Z,13.49
2019-05-30T00:41:27.892Z,13.46
2019-05-30T00:42:27.914Z,13.52
2019-05-30T00:43:27.875Z,13.57
2019-05-30T00:44:27.860Z,13.57
2019-05-30T00:45:27.846Z,13.55
2019-05-30T00:46:27.837Z,13.57
2019-05-30T00:47:27.827Z,13.57
2019-05-30T00:48:27.828Z,13.54
2019-05-30T00:49:32.833Z,13.60
2019-05-30T00:50:27.794Z,13.57
2019-05-30T00:51:27.782Z,13.54
2019-05-30T00:52:27.772Z,13.59
2019-05-30T00:53:27.777Z,13.45
2019-05-30T00:54:27.758Z,13.42
2019-05-30T00:55:27.742Z,13.48
2019-05-30T00:56:27.733Z,13.48
2019-05-30T00:57:27.713Z,13.55
2019-05-30T00:58:27.716Z,13.51
2019-05-30T00:59:27.703Z,13.42
2019-05-30T01:00:42.737Z,13.44
2019-05-30T01:01:28.667Z,13.52
2019-05-30T01:02:27.659Z,13.48
2019-05-30T01:03:27.656Z,13.52
2019-05-30T01:04:27.639Z,13.45
2019-05-30T01:05:27.625Z,13.49
2019-05-30T01:06:27.615Z,13.49
2019-05-30T01:07:27.609Z,13.52
2019-05-30T01:08:27.616Z,13.52
2019-05-30T01:09:27.583Z,13.51
2019-05-30T01:10:27.572Z,13.46
2019-05-30T01:11:32.584Z,13.51
2019-05-30T01:12:27.550Z,13.39
2019-05-30T01:13:27.569Z,13.48
2019-05-30T01:14:27.525Z,13.51
2019-05-30T01:15:27.522Z,13.46
2019-05-30T01:16:27.505Z,13.49
2019-05-30T01:17:27.500Z,13.44
2019-05-30T01:18:27.494Z,13.51
2019-05-30T01:19:27.475Z,13.38
2019-05-30T01:20:27.460Z,13.38
2019-05-30T01:21:27.449Z,13.45
2019-05-30T01:22:32.461Z,13.41
2019-05-30T01:23:27.453Z,13.42
2019-05-30T01:24:27.420Z,13.51
2019-05-30T01:25:27.405Z,13.49
2019-05-30T01:26:27.395Z,13.57
2019-05-30T01:27:27.399Z,13.54
2019-05-30T01:28:27.385Z,13.51
2019-05-30T01:29:27.363Z,13.52
2019-05-30T01:30:27.359Z,13.59
2019-05-30T01:31:27.338Z,13.59
2019-05-30T01:32:27.332Z,13.64
2019-05-30T01:33:32.351Z,13.59
2019-05-30T01:34:27.308Z,13.62
2019-05-30T01:35:27.297Z,13.62
2019-05-30T01:36:27.284Z,13.59
2019-05-30T01:37:27.274Z,13.55
2019-05-30T01:38:27.275Z,13.60
2019-05-30T01:39:27.284Z,13.55
2019-05-30T01:40:27.243Z,13.51
2019-05-30T01:41:27.229Z,13.54
2019-05-30T01:42:27.219Z,13.55
2019-05-30T01:43:27.216Z,13.49
2019-05-30T01:44:32.222Z,13.60
2019-05-30T01:45:27.188Z,13.55
2019-05-30T01:46:27.175Z,13.45
2019-05-30T01:47:27.168Z,13.45
2019-05-30T01:48:27.168Z,13.46
2019-05-30T01:49:27.145Z,13.52
2019-05-30T01:50:27.157Z,13.54
2019-05-30T01:51:27.129Z,13.52
2019-05-30T01:52:27.110Z,13.45
2019-05-30T01:53:27.096Z,13.44
2019-05-30T01:54:27.097Z,13.39
2019-05-30T01:55:32.096Z,13.33
2019-05-30T01:56:27.068Z,13.42
2019-05-30T01:57:27.058Z,13.39
2019-05-30T01:58:27.044Z,13.33
2019-05-30T01:59:27.041Z,13.30
2019-05-30T02:00:27.022Z,13.28
2019-05-30T02:01:27.009Z,13.28
2019-05-30T02:02:27.016Z,13.23
2019-05-30T02:03:27.040Z,13.26
2019-05-30T02:04:26.989Z,13.23
2019-05-30T02:05:26.969Z,13.39
2019-05-30T02:06:31.983Z,13.28
2019-05-30T02:07:26.941Z,13.41
2019-05-30T02:08:26.939Z,13.28
2019-05-30T02:09:26.935Z,13.29
2019-05-30T02:10:26.910Z,13.26
2019-05-30T02:11:26.899Z,13.26
2019-05-30T02:12:26.887Z,13.41
2019-05-30T02:13:26.883Z,13.41
2019-05-30T02:14:26.875Z,13.30
2019-05-30T02:15:26.853Z,13.36
2019-05-30T02:16:26.849Z,13.38
2019-05-30T02:17:31.860Z,13.23
2019-05-30T02:18:26.819Z,13.22
2019-05-30T02:19:26.818Z,13.26
2019-05-30T02:20:26.805Z,13.19
2019-05-30T02:21:26.789Z,13.28
2019-05-30T02:22:26.774Z,13.25
2019-05-30T02:23:26.763Z,13.25
2019-05-30T02:24:26.763Z,13.26
2019-05-30T02:25:26.749Z,13.22
2019-05-30T02:26:26.741Z,13.22
2019-05-30T02:27:26.724Z,13.22
2019-05-30T02:28:31.735Z,13.25
2019-05-30T02:29:26.720Z,13.25
2019-05-30T02:30:26.690Z,13.22
2019-05-30T02:31:38.318Z,13.29
2019-05-30T02:32:27.665Z,13.23
2019-05-30T02:33:26.669Z,13.39
2019-05-30T02:34:26.667Z,13.23
2019-05-30T02:35:26.632Z,13.29
2019-05-30T02:36:26.622Z,13.23
2019-05-30T02:37:26.616Z,13.19
2019-05-30T02:38:26.598Z,13.22
2019-05-30T02:39:31.645Z,13.25
2019-05-30T02:40:26.590Z,13.22
2019-05-30T02:41:26.569Z,13.22
2019-05-30T02:42:26.556Z,13.20
2019-05-30T02:43:26.557Z,13.05
2019-05-30T02:44:26.532Z,13.11
2019-05-30T02:45:26.530Z,13.11
2019-05-30T02:46:26.508Z,13.05
2019-05-30T02:47:26.508Z,13.08
2019-05-30T02:48:26.501Z,13.11
2019-05-30T02:49:26.486Z,13.01
2019-05-30T02:50:31.496Z,13.05
2019-05-30T02:51:26.454Z,13.11
2019-05-30T02:52:26.443Z,13.11
2019-05-30T02:53:26.434Z,13.05
2019-05-30T02:54:26.420Z,13.07
2019-05-30T02:55:26.425Z,13.10
2019-05-30T02:56:26.403Z,13.19
2019-05-30T02:57:26.392Z,13.19
2019-05-30T02:58:26.376Z,13.17
2019-05-30T02:59:26.365Z,13.10
2019-05-30T03:00:26.365Z,13.20
2019-05-30T03:01:31.367Z,13.19
2019-05-30T03:02:26.338Z,13.20
2019-05-30T03:03:26.332Z,13.19
2019-05-30T03:04:26.311Z,13.23
2019-05-30T03:05:26.402Z,13.20
2019-05-30T03:06:26.296Z,13.25
2019-05-30T03:07:26.291Z,13.19
2019-05-30T03:08:26.266Z,13.19
2019-05-30T03:09:26.255Z,13.15
2019-05-30T03:10:26.255Z,13.15
2019-05-30T03:11:26.240Z,13.05
2019-05-30T03:12:31.256Z,13.20
2019-05-30T03:13:26.210Z,13.11
2019-05-30T03:14:26.203Z,13.03
2019-05-30T03:15:26.197Z,13.10
2019-05-30T03:16:26.194Z,13.04
2019-05-30T03:17:26.171Z,13.05
2019-05-30T03:18:26.160Z,13.05
2019-05-30T03:19:26.141Z,13.22
2019-05-30T03:20:26.142Z,13.07
2019-05-30T03:21:26.122Z,13.17
2019-05-30T03:22:26.113Z,13.07
2019-05-30T03:23:31.123Z,13.07
2019-05-30T03:24:26.091Z,13.04
2019-05-30T03:25:26.090Z,13.00
2019-05-30T03:26:26.064Z,12.97
2019-05-30T03:27:26.054Z,12.96
2019-05-30T03:28:26.052Z,12.92
2019-05-30T03:29:26.034Z,12.96
2019-05-30T03:30:29.024Z,12.92
2019-05-30T03:31:29.152Z,12.93
2019-05-30T03:33:39.276Z,12.92
2019-05-30T03:34:32.007Z,12.89
2019-05-30T03:35:29.840Z,12.90
2019-05-30T03:36:31.159Z,12.86
2019-05-30T03:37:29.555Z,12.85
2019-05-30T03:38:25.934Z,12.85
2019-05-30T03:39:25.952Z,12.82
2019-05-30T03:40:29.176Z,12.79
2019-05-30T03:41:25.907Z,12.75
2019-05-30T03:42:25.900Z,12.78
2019-05-30T03:43:25.874Z,12.70
2019-05-30T03:44:25.865Z,12.70
2019-05-30T03:45:30.878Z,12.72
2019-05-30T03:46:25.868Z,12.72
2019-05-30T03:47:25.830Z,12.75
2019-05-30T03:48:25.818Z,12.82
2019-05-30T03:49:25.808Z,12.85
2019-05-30T03:50:25.798Z,12.79
2019-05-30T03:51:25.818Z,12.78
2019-05-30T03:52:25.781Z,12.79
2019-05-30T03:53:25.775Z,12.71
2019-05-30T03:54:25.755Z,12.70
2019-05-30T03:55:25.742Z,12.74
2019-05-30T03:56:30.768Z,12.71
2019-05-30T03:57:25.727Z,12.62
2019-05-30T03:58:25.708Z,12.62
2019-05-30T03:59:25.695Z,12.60
2019-05-30T04:00:25.692Z,12.68
2019-05-30T04:01:25.690Z,12.72
2019-05-30T04:02:25.664Z,12.68
2019-05-30T04:03:25.662Z,12.70
2019-05-30T04:04:25.650Z,12.70
2019-05-30T04:05:25.633Z,12.65
2019-05-30T04:06:25.641Z,12.74
2019-05-30T04:07:30.633Z,12.70
2019-05-30T04:08:25.608Z,12.83
2019-05-30T04:09:25.582Z,12.70
2019-05-30T04:10:25.580Z,12.83
2019-05-30T04:11:25.571Z,12.83
2019-05-30T04:12:25.549Z,12.75
2019-05-30T04:13:25.544Z,12.82
2019-05-30T04:14:25.533Z,12.78
2019-05-30T04:15:25.519Z,12.79
2019-05-30T04:16:25.528Z,12.86
2019-05-30T04:17:25.500Z,12.86
2019-05-30T04:18:30.505Z,12.78
2019-05-30T04:19:25.520Z,12.78
2019-05-30T04:20:25.465Z,12.82
2019-05-30T04:21:25.510Z,12.71
2019-05-30T04:22:25.445Z,12.75
2019-05-30T04:23:25.474Z,12.75
2019-05-30T04:24:25.445Z,12.86
2019-05-30T04:25:25.405Z,12.85
2019-05-30T04:26:25.413Z,12.79
2019-05-30T04:27:25.395Z,12.82
2019-05-30T04:28:25.371Z,12.78
2019-05-30T04:29:30.383Z,12.87
2019-05-30T04:30:25.349Z,12.79
2019-05-30T04:31:25.368Z,12.75
2019-05-30T04:32:25.326Z,12.85
2019-05-30T04:33:32.309Z,12.86
2019-05-30T04:34:26.306Z,12.89
2019-05-30T04:35:25.294Z,12.89
2019-05-30T04:36:25.285Z,12.87
2019-05-30T04:37:25.295Z,12.93
2019-05-30T04:38:25.270Z,12.95
2019-05-30T04:39:25.251Z,13.04
2019-05-30T04:40:30.260Z,12.96
2019-05-30T04:41:25.227Z,12.93
2019-05-30T04:42:25.227Z,13.03
2019-05-30T04:43:25.206Z,12.95
2019-05-30T04:44:25.192Z,13.00
2019-05-30T04:45:27.989Z,12.97
2019-05-30T04:46:25.171Z,13.10
2019-05-30T04:47:25.178Z,13.07
2019-05-30T04:48:25.149Z,13.01
2019-05-30T04:49:25.137Z,13.11
2019-05-30T04:50:25.125Z,13.03
2019-05-30T04:51:30.139Z,13.04
2019-05-30T04:52:25.192Z,13.07
2019-05-30T04:53:25.097Z,12.97
2019-05-30T04:54:25.083Z,13.00
2019-05-30T04:55:25.076Z,13.10
2019-05-30T04:56:25.065Z,13.07
2019-05-30T04:57:27.026Z,13.04
2019-05-30T04:58:25.036Z,13.12
2019-05-30T04:59:25.034Z,13.10
2019-05-30T05:00:25.013Z,13.14
2019-05-30T05:01:25.002Z,13.15
2019-05-30T05:02:30.028Z,13.26
2019-05-30T05:03:44.321Z,13.22
2019-05-30T05:04:25.978Z,13.22
2019-05-30T05:05:27.082Z,13.23
2019-05-30T05:06:24.952Z,13.23
2019-05-30T05:07:24.947Z,13.22
2019-05-30T05:08:24.925Z,13.28
2019-05-30T05:09:24.914Z,13.29
2019-05-30T05:10:24.908Z,13.17
2019-05-30T05:11:25.506Z,13.26
2019-05-30T05:12:24.891Z,13.23
2019-05-30T05:13:29.897Z,13.26
2019-05-30T05:14:24.878Z,13.25
2019-05-30T05:15:24.852Z,13.38
2019-05-30T05:16:34.948Z,13.39
2019-05-30T05:17:25.832Z,13.36
2019-05-30T05:18:24.813Z,13.36
2019-05-30T05:19:26.163Z,13.39
2019-05-30T05:20:24.798Z,13.42
2019-05-30T05:21:24.782Z,13.55
2019-05-30T05:22:24.790Z,13.51
2019-05-30T05:23:24.759Z,13.57
2019-05-30T05:24:29.766Z,13.54
2019-05-30T05:25:24.737Z,13.54
2019-05-30T05:26:24.724Z,13.55
2019-05-30T05:27:24.716Z,13.52
2019-05-30T05:28:24.715Z,13.46
2019-05-30T05:29:24.688Z,13.46
2019-05-30T05:30:24.682Z,13.33
2019-05-30T05:31:24.668Z,13.49
2019-05-30T05:32:24.704Z,13.44
2019-05-30T05:33:24.836Z,13.51
2019-05-30T05:34:24.867Z,13.48
2019-05-30T05:35:29.642Z,13.60
2019-05-30T05:36:25.207Z,13.51
2019-05-30T05:37:25.352Z,13.52
2019-05-30T05:38:24.608Z,13.54
2019-05-30T05:39:24.578Z,13.69
2019-05-30T05:40:24.566Z,13.64
2019-05-30T05:41:24.555Z,13.67
2019-05-30T05:42:28.383Z,13.66
2019-05-30T05:43:25.549Z,13.70
2019-05-30T05:44:24.609Z,13.84
2019-05-30T05:45:24.724Z,13.84
2019-05-30T05:46:29.524Z,13.87
2019-05-30T05:47:24.639Z,13.81
2019-05-30T05:48:24.795Z,13.87
2019-05-30T05:49:24.912Z,13.84
2019-05-30T05:50:24.651Z,13.81
2019-05-30T05:51:24.791Z,13.87
2019-05-30T05:52:24.850Z,13.78
2019-05-30T05:53:25.114Z,13.85
2019-05-30T05:54:25.000Z,13.84
2019-05-30T05:55:25.012Z,13.82
2019-05-30T05:56:24.947Z,13.69
2019-05-30T05:57:29.410Z,13.84
2019-05-30T05:58:26.179Z,13.73
2019-05-30T05:59:25.204Z,13.66
2019-05-30T06:00:25.301Z,13.63
2019-05-30T06:01:25.435Z,13.64
2019-05-30T06:02:25.167Z,13.81
2019-05-30T06:03:24.389Z,13.95
2019-05-30T06:04:25.235Z,13.95
2019-05-30T06:05:24.407Z,13.92
2019-05-30T06:06:25.329Z,14.04
2019-05-30T06:07:24.599Z,14.06
2019-05-30T06:08:29.297Z,14.06
2019-05-30T06:09:24.618Z,13.97
2019-05-30T06:10:24.237Z,14.10
2019-05-30T06:11:24.633Z,14.12
2019-05-30T06:12:24.233Z,14.27
2019-05-30T06:13:24.835Z,14.24
2019-05-30T06:14:24.303Z,14.47
2019-05-30T06:15:25.004Z,14.57
2019-05-30T06:16:24.210Z,14.77
2019-05-30T06:17:25.095Z,14.83
2019-05-30T06:18:24.306Z,14.83
2019-05-30T06:19:44.957Z,14.95
2019-05-30T06:20:25.388Z,15.14
2019-05-30T06:21:24.117Z,15.13
2019-05-30T06:22:24.110Z,15.13
2019-05-30T06:23:24.121Z,14.96
2019-05-30T06:24:24.091Z,15.03
2019-05-30T06:25:25.168Z,15.11
2019-05-30T06:26:25.920Z,15.07
2019-05-30T06:27:24.067Z,15.14
2019-05-30T06:28:24.205Z,15.35
2019-05-30T06:29:24.196Z,15.50
2019-05-30T06:30:29.038Z,15.80
2019-05-30T06:31:24.492Z,15.92
2019-05-30T06:32:24.650Z,16.09
2019-05-30T06:33:24.992Z,16.12
2019-05-30T06:34:34.892Z,15.96
2019-05-30T06:35:25.055Z,16.11
2019-05-30T06:36:25.018Z,16.24
2019-05-30T06:37:25.136Z,16.35
2019-05-30T06:38:23.927Z,16.31
2019-05-30T06:39:23.926Z,16.30
2019-05-30T06:40:23.906Z,16.31
2019-05-30T06:41:29.814Z,16.15
2019-05-30T06:42:23.879Z,16.17
2019-05-30T06:43:24.359Z,16.14
2019-05-30T06:44:23.998Z,16.11
2019-05-30T06:45:25.255Z,16.17
2019-05-30T06:46:24.137Z,16.11
2019-05-30T06:47:24.370Z,16.04
2019-05-30T06:48:24.663Z,16.04
2019-05-30T06:49:24.750Z,16.00
2019-05-30T06:50:24.726Z,15.92
2019-05-30T06:51:24.858Z,15.89
2019-05-30T06:52:29.154Z,15.89
2019-05-30T06:53:25.054Z,15.87
2019-05-30T06:54:24.659Z,15.87
2019-05-30T06:55:23.766Z,15.89
2019-05-30T06:56:23.740Z,15.97
2019-05-30T06:57:23.720Z,16.05
2019-05-30T06:58:39.125Z,16.04
2019-05-30T06:59:25.549Z,16.01
2019-05-30T07:00:23.767Z,16.05
2019-05-30T07:01:23.834Z,16.15
2019-05-30T07:02:24.250Z,16.30
2019-05-30T07:03:28.728Z,16.21
2019-05-30T07:04:25.203Z,16.31
2019-05-30T07:05:25.583Z,16.30
2019-05-30T07:06:25.037Z,16.41
2019-05-30T07:07:24.927Z,16.39
2019-05-30T07:08:24.697Z,16.31
2019-05-30T07:09:24.886Z,16.38
2019-05-30T07:10:24.817Z,16.41
2019-05-30T07:11:24.729Z,16.43
2019-05-30T07:12:25.716Z,16.57
2019-05-30T07:13:23.532Z,16.45
2019-05-30T07:14:29.341Z,16.56
2019-05-30T07:15:23.514Z,16.58
2019-05-30T07:16:23.500Z,16.73
2019-05-30T07:17:23.488Z,16.67
2019-05-30T07:18:23.526Z,16.75
2019-05-30T07:19:23.479Z,16.78
2019-05-30T07:20:23.573Z,16.85
2019-05-30T07:21:23.604Z,16.94
2019-05-30T07:22:23.568Z,16.96
2019-05-30T07:23:23.743Z,16.82
2019-05-30T07:24:23.764Z,16.76
2019-05-30T07:25:28.421Z,16.68
2019-05-30T07:26:23.831Z,16.78
2019-05-30T07:27:23.738Z,16.76
2019-05-30T07:28:23.829Z,16.81
2019-05-30T07:29:23.973Z,16.85
2019-05-30T07:30:23.801Z,16.81
2019-05-30T07:31:24.028Z,16.85
2019-05-30T07:32:24.047Z,16.85
2019-05-30T07:33:23.977Z,16.76
2019-05-30T07:34:23.947Z,16.75
2019-05-30T07:35:23.964Z,16.85
2019-05-30T07:36:28.311Z,16.88
2019-05-30T07:37:24.525Z,16.86
2019-05-30T07:38:24.286Z,16.89
2019-05-30T07:39:26.385Z,16.85
2019-05-30T07:40:24.509Z,16.79
2019-05-30T07:41:24.538Z,16.83
2019-05-30T07:42:24.385Z,16.89
2019-05-30T07:43:25.375Z,16.97
2019-05-30T07:44:23.189Z,16.88
2019-05-30T07:45:23.186Z,16.97
2019-05-30T07:46:23.163Z,17.12
2019-05-30T07:47:28.234Z,17.07
2019-05-30T07:48:23.151Z,16.96
2019-05-30T07:49:23.131Z,16.98
2019-05-30T07:50:23.140Z,17.04
2019-05-30T07:51:24.526Z,17.11
2019-05-30T07:52:23.097Z,17.04
2019-05-30T07:53:23.086Z,17.16
2019-05-30T07:54:23.076Z,17.23
2019-05-30T07:55:23.089Z,17.25
2019-05-30T07:56:23.058Z,17.33
2019-05-30T07:57:23.041Z,17.34
2019-05-30T07:58:29.030Z,17.23
2019-05-30T07:59:23.024Z,17.23
2019-05-30T08:00:23.028Z,17.36
2019-05-30T08:01:22.997Z,17.48
2019-05-30T08:02:22.995Z,17.58
2019-05-30T08:03:22.977Z,17.66
2019-05-30T08:04:22.961Z,17.63
2019-05-30T08:05:24.827Z,17.59
2019-05-30T08:06:22.943Z,17.70
2019-05-30T08:07:22.931Z,17.81
2019-05-30T08:08:22.920Z,17.96
2019-05-30T08:09:29.226Z,18.17
2019-05-30T08:10:22.909Z,18.14
2019-05-30T08:11:22.887Z,18.26
2019-05-30T08:12:22.879Z,18.15
2019-05-30T08:13:22.864Z,18.17
2019-05-30T08:14:22.854Z,18.10
2019-05-30T08:15:22.869Z,18.14
2019-05-30T08:16:22.836Z,18.17
2019-05-30T08:17:22.827Z,18.02
2019-05-30T08:18:22.812Z,18.12
2019-05-30T08:19:22.802Z,18.10
2019-05-30T08:20:27.824Z,18.15
2019-05-30T08:21:22.779Z,18.15
2019-05-30T08:22:22.765Z,18.18
2019-05-30T08:23:22.753Z,18.25
2019-05-30T08:24:22.761Z,18.23
2019-05-30T08:25:22.752Z,18.32
2019-05-30T08:26:22.749Z,18.25
2019-05-30T08:27:22.734Z,18.36
2019-05-30T08:28:22.726Z,18.47
2019-05-30T08:29:22.696Z,18.48
2019-05-30T08:30:22.685Z,18.55
2019-05-30T08:31:28.592Z,18.54
2019-05-30T08:32:22.654Z,18.58
2019-05-30T08:33:22.654Z,18.54
2019-05-30T08:34:22.632Z,18.55
2019-05-30T08:35:36.486Z,18.60
2019-05-30T08:36:23.610Z,18.67
2019-05-30T08:37:22.600Z,18.72
2019-05-30T08:38:22.587Z,18.58
2019-05-30T08:39:22.576Z,18.69
2019-05-30T08:40:22.573Z,18.73
2019-05-30T08:41:22.565Z,18.65
2019-05-30T08:42:28.091Z,18.70
2019-05-30T08:43:22.533Z,18.69
2019-05-30T08:44:22.525Z,18.76
2019-05-30T08:45:22.510Z,18.76
2019-05-30T08:46:22.513Z,18.76
2019-05-30T08:47:22.487Z,18.70
2019-05-30T08:48:22.481Z,18.76
2019-05-30T08:49:22.463Z,18.76
2019-05-30T08:50:22.452Z,18.76
2019-05-30T08:51:22.451Z,18.92
2019-05-30T08:52:22.434Z,18.94
2019-05-30T08:53:27.442Z,18.99
2019-05-30T08:54:22.408Z,18.98
2019-05-30T08:55:22.413Z,19.07
2019-05-30T08:56:22.395Z,19.11
2019-05-30T08:57:22.375Z,19.16
2019-05-30T08:58:22.389Z,19.21
2019-05-30T08:59:22.355Z,19.22
2019-05-30T09:00:22.342Z,19.25
2019-05-30T09:01:22.343Z,19.32
2019-05-30T09:02:22.318Z,19.29
2019-05-30T09:03:22.339Z,19.40
2019-05-30T09:04:27.319Z,19.46
2019-05-30T09:05:22.305Z,19.48
2019-05-30T09:06:22.290Z,19.39
2019-05-30T09:07:22.262Z,19.50
2019-05-30T09:08:22.284Z,19.55
2019-05-30T09:09:22.246Z,19.50
2019-05-30T09:10:22.234Z,19.54
2019-05-30T09:11:22.228Z,19.50
2019-05-30T09:12:22.215Z,19.58
2019-05-30T09:13:22.197Z,19.59
2019-05-30T09:14:22.191Z,19.73
2019-05-30T09:15:27.199Z,19.80
2019-05-30T09:16:22.183Z,19.76
2019-05-30T09:17:22.151Z,19.84
2019-05-30T09:18:22.144Z,19.77
2019-05-30T09:19:22.130Z,19.78
2019-05-30T09:20:22.130Z,19.73
2019-05-30T09:21:22.116Z,19.81
2019-05-30T09:22:22.101Z,19.83
2019-05-30T09:23:22.095Z,19.78
2019-05-30T09:24:22.074Z,19.74
2019-05-30T09:25:22.067Z,19.80
2019-05-30T09:26:27.085Z,19.91
2019-05-30T09:27:22.041Z,19.98
2019-05-30T09:28:22.033Z,20.02
2019-05-30T09:29:22.022Z,20.16
2019-05-30T09:30:22.014Z,20.21
2019-05-30T09:31:22.010Z,20.13
2019-05-30T09:32:21.992Z,20.14
2019-05-30T09:33:21.978Z,20.26
2019-05-30T09:34:21.969Z,20.43
2019-05-30T09:35:21.956Z,20.50
2019-05-30T09:36:21.955Z,20.50
2019-05-30T09:37:26.959Z,20.54
2019-05-30T09:38:21.923Z,20.62
2019-05-30T09:39:21.911Z,20.85
2019-05-30T09:40:21.914Z,21.09
2019-05-30T09:41:21.899Z,21.54
2019-05-30T09:42:21.878Z,22.18
2019-05-30T09:43:21.866Z,22.61
2019-05-30T09:44:21.854Z,22.92
2019-05-30T09:45:21.843Z,23.28
2019-05-30T09:46:21.849Z,23.47
2019-05-30T09:47:21.820Z,23.46
2019-05-30T09:48:26.832Z,23.50
2019-05-30T09:49:21.798Z,23.31
2019-05-30T09:50:21.793Z,23.02
2019-05-30T09:51:21.804Z,22.95
2019-05-30T09:52:21.782Z,22.85
2019-05-30T09:53:21.753Z,22.51
2019-05-30T09:54:21.750Z,22.55
2019-05-30T09:55:21.736Z,22.52
2019-05-30T09:56:21.735Z,22.52
2019-05-30T09:57:21.743Z,22.42
2019-05-30T09:58:21.704Z,22.37
2019-05-30T09:59:26.708Z,22.39
2019-05-30T10:00:21.676Z,22.60
2019-05-30T10:01:21.840Z,22.76
2019-05-30T10:02:21.667Z,22.68
2019-05-30T10:03:21.656Z,22.77
2019-05-30T10:04:21.634Z,22.54
2019-05-30T10:05:24.313Z,22.18
2019-05-30T10:06:29.455Z,22.06
2019-05-30T10:07:22.616Z,22.03
2019-05-30T10:08:21.599Z,22.17
2019-05-30T10:09:21.580Z,22.18
2019-05-30T10:10:26.590Z,22.10
2019-05-30T10:11:21.555Z,22.14
2019-05-30T10:12:21.553Z,22.24
2019-05-30T10:13:21.532Z,22.17
2019-05-30T10:14:21.521Z,22.10
2019-05-30T10:15:21.532Z,22.02
2019-05-30T10:16:21.504Z,21.86
2019-05-30T10:17:21.498Z,21.75
2019-05-30T10:18:21.489Z,21.80
2019-05-30T10:19:21.471Z,21.65
2019-05-30T10:20:21.540Z,21.69
2019-05-30T10:21:26.466Z,21.62
2019-05-30T10:22:21.454Z,21.62
2019-05-30T10:23:21.424Z,21.42
2019-05-30T10:24:21.413Z,21.40
2019-05-30T10:25:21.441Z,21.46
2019-05-30T10:26:21.391Z,21.38
2019-05-30T10:27:21.392Z,21.38
2019-05-30T10:28:21.365Z,21.43
2019-05-30T10:29:21.355Z,21.46
2019-05-30T10:30:21.349Z,21.38
2019-05-30T10:31:21.338Z,21.46
2019-05-30T10:32:26.355Z,21.42
2019-05-30T10:33:21.368Z,21.42
2019-05-30T10:34:21.298Z,21.40
2019-05-30T10:35:21.296Z,21.32
2019-05-30T10:36:21.278Z,21.31
2019-05-30T10:37:21.278Z,21.25
2019-05-30T10:38:21.254Z,21.22
2019-05-30T10:39:21.331Z,21.21
2019-05-30T10:40:21.234Z,21.21
2019-05-30T10:41:21.224Z,21.28
2019-05-30T10:42:21.238Z,21.31
2019-05-30T10:43:26.338Z,21.24
2019-05-30T10:44:21.261Z,21.22
2019-05-30T10:45:21.182Z,21.13
2019-05-30T10:46:21.176Z,21.21
2019-05-30T10:47:21.253Z,21.24
2019-05-30T10:48:21.354Z,21.13
2019-05-30T10:49:34.231Z,21.14
2019-05-30T10:50:22.123Z,21.07
2019-05-30T10:51:21.180Z,21.10
2019-05-30T10:52:21.169Z,21.03
2019-05-30T10:53:21.155Z,20.92
2019-05-30T10:54:26.113Z,21.04
2019-05-30T10:55:21.073Z,20.99
2019-05-30T10:56:21.069Z,21.04
2019-05-30T10:57:21.047Z,21.13
2019-05-30T10:58:21.066Z,21.10
2019-05-30T10:59:21.028Z,21.16
2019-05-30T11:00:21.036Z,21.19
2019-05-30T11:01:21.014Z,21.12
2019-05-30T11:02:21.006Z,21.14
2019-05-30T11:03:21.111Z,21.13
2019-05-30T11:04:20.993Z,21.21
2019-05-30T11:05:25.990Z,21.17
2019-05-30T11:06:20.987Z,21.29
2019-05-30T11:07:20.956Z,21.21
2019-05-30T11:08:20.937Z,21.29
2019-05-30T11:09:20.920Z,21.40
2019-05-30T11:10:20.924Z,21.42
2019-05-30T11:11:20.938Z,21.44
2019-05-30T11:12:20.891Z,21.40
2019-05-30T11:13:20.884Z,21.38
2019-05-30T11:14:20.863Z,21.65
2019-05-30T11:15:20.859Z,21.49
2019-05-30T11:16:25.921Z,21.52
2019-05-30T11:17:20.844Z,21.52
2019-05-30T11:18:20.885Z,21.67
2019-05-30T11:19:20.823Z,21.52
2019-05-30T11:20:20.841Z,21.54
2019-05-30T11:21:20.788Z,21.43
2019-05-30T11:22:20.862Z,21.49
2019-05-30T11:23:20.798Z,21.47
2019-05-30T11:24:20.767Z,21.42
2019-05-30T11:25:20.742Z,21.44
2019-05-30T11:26:20.731Z,21.40
2019-05-30T11:27:25.746Z,21.42
2019-05-30T11:28:20.736Z,21.35
2019-05-30T11:29:20.728Z,21.37
2019-05-30T11:30:20.693Z,21.21
2019-05-30T11:31:20.706Z,21.38
2019-05-30T11:32:20.665Z,21.34
2019-05-30T11:33:21.021Z,21.31
2019-05-30T11:34:20.682Z,21.25
2019-05-30T11:35:20.631Z,21.25
2019-05-30T11:36:20.625Z,21.29
2019-05-30T11:37:20.627Z,21.35
2019-05-30T11:38:25.717Z,21.37
2019-05-30T11:39:20.587Z,21.31
2019-05-30T11:40:20.577Z,21.35
2019-05-30T11:41:20.622Z,21.37
2019-05-30T11:42:20.585Z,21.37
2019-05-30T11:43:20.554Z,21.42
2019-05-30T11:44:20.537Z,21.42
2019-05-30T11:45:20.537Z,21.42
2019-05-30T11:46:20.534Z,21.44
2019-05-30T11:47:20.506Z,21.49
2019-05-30T11:48:20.526Z,21.49
2019-05-30T11:49:25.509Z,21.67
2019-05-30T11:50:20.490Z,21.62
2019-05-30T11:51:20.468Z,21.64
2019-05-30T11:52:20.474Z,21.67
2019-05-30T11:53:20.461Z,21.80
2019-05-30T11:54:20.472Z,21.68
2019-05-30T11:55:20.413Z,21.82
2019-05-30T11:56:20.453Z,21.71
2019-05-30T11:57:20.427Z,21.94
2019-05-30T11:58:20.394Z,22.02
2019-05-30T11:59:20.396Z,21.99
2019-05-30T12:00:25.374Z,22.09
2019-05-30T12:01:20.431Z,22.18
2019-05-30T12:02:20.339Z,22.21
2019-05-30T12:03:20.320Z,22.20
2019-05-30T12:04:20.330Z,22.14
2019-05-30T12:05:20.332Z,22.24
2019-05-30T12:06:20.290Z,22.28
2019-05-30T12:07:35.425Z,22.27
2019-05-30T12:08:21.275Z,22.06
2019-05-30T12:09:20.263Z,22.07
2019-05-30T12:10:20.276Z,22.02
2019-05-30T12:11:25.260Z,22.05
2019-05-30T12:12:20.231Z,22.03
2019-05-30T12:13:20.253Z,22.09
2019-05-30T12:14:21.495Z,22.17
2019-05-30T12:15:20.203Z,22.35
2019-05-30T12:16:20.183Z,22.57
2019-05-30T12:17:20.165Z,22.67
2019-05-30T12:18:20.187Z,22.73
2019-05-30T12:19:20.158Z,22.73
2019-05-30T12:20:20.130Z,22.79
2019-05-30T12:21:20.129Z,22.80
2019-05-30T12:22:25.134Z,22.90
2019-05-30T12:23:20.095Z,23.01
2019-05-30T12:24:20.102Z,23.13
2019-05-30T12:25:20.099Z,23.31
2019-05-30T12:26:20.072Z,23.40
2019-05-30T12:27:20.071Z,23.43
2019-05-30T12:28:20.042Z,23.39
2019-05-30T12:29:20.052Z,23.53
2019-05-30T12:30:20.030Z,23.48
2019-05-30T12:31:20.028Z,23.39
2019-05-30T12:32:20.011Z,23.38
2019-05-30T12:33:25.020Z,23.32
2019-05-30T12:34:20.035Z,23.40
2019-05-30T12:35:19.979Z,23.33
2019-05-30T12:36:19.963Z,23.17
2019-05-30T12:37:23.389Z,23.17
2019-05-30T12:38:19.931Z,23.19
2019-05-30T12:39:19.927Z,23.31
2019-05-30T12:40:19.951Z,23.31
2019-05-30T12:41:19.906Z,23.27
2019-05-30T12:42:19.938Z,23.23
2019-05-30T12:43:19.895Z,23.20
2019-05-30T12:44:24.930Z,23.15
2019-05-30T12:45:19.854Z,23.17
2019-05-30T12:46:19.846Z,23.13
2019-05-30T12:47:19.876Z,23.05
2019-05-30T12:48:19.856Z,23.05
2019-05-30T12:49:19.847Z,23.01
2019-05-30T12:50:19.809Z,23.00
2019-05-30T12:51:19.792Z,23.01
2019-05-30T12:52:19.789Z,23.02
2019-05-30T12:53:19.789Z,23.04